Time;durP1;ratioP1;P1;durP2;ratioP2;P2;SDS_P1;SDS_P2;PMS_P1;PMS_P2;Temp;Humidity;BMP_temperature;BMP_pressure;BME280_temperature;BME280_humidity;BME280_pressure;Samples;Min_cycle;Max_cycle;Signal;HPM_P1;HPM_P2
2021/11/02 00:01:55;;;;;;;0.93;0.82;;;21.80;52.80;;;;;;6218604;28;20077;-65
2021/11/02 00:04:58;;;;;;;1.30;0.70;;;21.80;52.80;;;;;;6217206;28;20088;-65
2021/11/02 00:07:59;;;;;;;0.70;0.70;;;21.80;52.70;;;;;;6218710;28;20014;-65
2021/11/02 00:11:00;;;;;;;1.00;0.90;;;21.80;52.80;;;;;;6228074;28;20037;-65
2021/11/02 00:14:03;;;;;;;0.50;0.50;;;21.80;52.80;;;;;;6252400;28;20053;-65
2021/11/02 00:20:13;;;;;;;0.77;0.77;;;21.80;52.70;;;;;;6243378;28;20450;-65
2021/11/02 00:23:13;;;;;;;1.23;1.00;;;21.80;52.70;;;;;;6243265;28;20029;-65
2021/11/02 00:26:14;;;;;;;1.38;1.05;;;21.80;52.70;;;;;;6243166;28;20113;-65
2021/11/02 00:29:15;;;;;;;0.90;0.70;;;21.80;52.80;;;;;;6243809;28;20029;-66
2021/11/02 00:32:16;;;;;;;1.40;0.90;;;21.80;52.70;;;;;;6257674;28;20021;-65
2021/11/02 00:35:18;;;;;;;1.33;0.80;;;21.80;52.80;;;;;;6267894;28;20017;-65
2021/11/02 00:38:19;;;;;;;1.10;0.88;;;21.80;52.80;;;;;;6267473;28;20032;-66
2021/11/02 00:41:19;;;;;;;0.75;0.75;;;21.80;52.80;;;;;;6267437;28;20037;-65
2021/11/02 00:44:22;;;;;;;0.85;0.70;;;21.80;52.80;;;;;;6267312;28;20029;-65
2021/11/02 00:47:25;;;;;;;0.80;0.70;;;21.80;52.80;;;;;;6246436;28;20034;-65
2021/11/02 00:50:27;;;;;;;2.00;0.90;;;21.80;52.80;;;;;;6232943;28;20275;-65
2021/11/02 00:53:29;;;;;;;0.90;0.80;;;21.80;52.80;;;;;;6245539;28;20438;-65
2021/11/02 00:56:29;;;;;;;1.40;0.90;;;21.80;52.80;;;;;;6241983;28;20045;-66
2021/11/02 00:59:30;;;;;;;1.10;0.80;;;21.80;52.80;;;;;;6243767;28;20108;-66
2021/11/02 01:02:30;;;;;;;1.10;0.85;;;21.80;52.80;;;;;;6233798;28;20570;-65
2021/11/02 01:05:32;;;;;;;0.90;0.77;;;21.80;52.80;;;;;;6218623;28;20053;-65
2021/11/02 01:08:32;;;;;;;1.08;0.80;;;21.80;52.80;;;;;;6257564;28;20037;-65
2021/11/02 01:11:33;;;;;;;0.85;0.70;;;21.80;52.80;;;;;;6267334;28;20095;-65
2021/11/02 01:14:34;;;;;;;1.08;0.90;;;21.80;52.80;;;;;;6267574;28;20481;-65
2021/11/02 01:17:35;;;;;;;0.93;0.73;;;21.80;52.80;;;;;;6250644;28;20033;-65
2021/11/02 01:20:36;;;;;;;1.02;0.70;;;21.80;52.80;;;;;;6246907;28;20383;-65
2021/11/02 01:23:36;;;;;;;1.02;0.65;;;21.80;52.80;;;;;;6247009;28;20108;-65
2021/11/02 01:26:38;;;;;;;1.48;0.73;;;21.80;52.80;;;;;;6247444;28;20033;-65
2021/11/02 01:29:39;;;;;;;1.00;0.90;;;21.80;52.80;;;;;;6265058;28;20060;-65
2021/11/02 01:32:41;;;;;;;0.95;0.70;;;21.80;52.80;;;;;;6271223;28;20056;-66
2021/11/02 01:35:41;;;;;;;0.88;0.70;;;21.80;52.90;;;;;;6271533;28;20025;-65
2021/11/02 01:38:42;;;;;;;1.05;0.80;;;21.80;52.90;;;;;;6271610;28;20535;-65
2021/11/02 01:41:43;;;;;;;0.77;0.75;;;21.80;52.80;;;;;;6271048;28;20478;-65
2021/11/02 01:44:43;;;;;;;1.40;0.88;;;21.80;52.90;;;;;;6271714;28;20025;-65
2021/11/02 01:47:46;;;;;;;1.15;0.75;;;21.80;52.80;;;;;;6256060;28;20537;-65
2021/11/02 01:50:48;;;;;;;0.50;0.50;;;21.80;52.90;;;;;;6246511;28;20530;-65
2021/11/02 01:53:50;;;;;;;1.00;0.80;;;21.80;52.90;;;;;;6246369;28;20067;-65
2021/11/02 01:56:51;;;;;;;0.82;0.60;;;21.80;52.90;;;;;;6244893;28;20112;-65
2021/11/02 01:59:52;;;;;;;0.50;0.40;;;21.80;52.90;;;;;;6246575;28;20122;-65
2021/11/02 02:03:23;;;;;;;0.60;0.60;;;21.80;52.90;;;;;;6262073;28;20071;-65
2021/11/02 02:06:41;;;;;;;0.80;0.68;;;21.80;52.90;;;;;;6271109;28;20505;-65
2021/11/02 02:10:12;;;;;;;0.60;0.60;;;21.80;52.90;;;;;;6222313;28;20163;-65
2021/11/02 02:13:24;;;;;;;1.02;0.70;;;21.80;52.90;;;;;;6243393;28;20056;-65
2021/11/02 02:16:37;;;;;;;0.90;0.70;;;21.80;52.90;;;;;;6271090;28;20017;-65
2021/11/02 02:19:55;;;;;;;1.50;0.80;;;21.80;52.90;;;;;;6249767;28;20079;-65
2021/11/02 02:23:11;;;;;;;0.73;0.60;;;21.80;52.90;;;;;;6252240;28;20021;-65
2021/11/02 02:26:50;;;;;;;0.70;0.50;;;21.80;52.90;;;;;;6264314;28;20078;-65
2021/11/02 02:29:52;;;;;;;0.90;0.70;;;21.80;52.90;;;;;;6242254;28;20071;-65
2021/11/02 02:32:54;;;;;;;1.38;0.70;;;21.80;52.90;;;;;;6241837;28;20117;-65
2021/11/02 02:35:56;;;;;;;0.80;0.77;;;21.80;52.90;;;;;;6269978;28;20033;-65
2021/11/02 02:38:59;;;;;;;0.70;0.65;;;21.80;52.90;;;;;;6270953;28;20470;-65
2021/11/02 02:42:01;;;;;;;0.50;0.50;;;21.80;52.90;;;;;;6270080;28;20025;-65
2021/11/02 02:45:02;;;;;;;0.55;0.52;;;21.80;52.90;;;;;;6270867;28;20083;-65
2021/11/02 02:48:04;;;;;;;0.50;0.50;;;21.80;52.90;;;;;;6252686;28;20060;-65
2021/11/02 02:51:06;;;;;;;2.10;0.70;;;21.80;52.90;;;;;;6248262;28;20024;-65
2021/11/02 02:54:07;;;;;;;0.40;0.40;;;21.80;52.90;;;;;;6269950;28;20137;-65
2021/11/02 02:57:10;;;;;;;1.02;0.70;;;21.80;52.90;;;;;;6269949;28;20059;-65
2021/11/02 03:00:12;;;;;;;0.90;0.60;;;21.80;52.90;;;;;;6269832;28;20029;-65
2021/11/02 03:03:14;;;;;;;0.80;0.65;;;21.80;52.90;;;;;;6270016;28;20444;-65
2021/11/02 03:06:17;;;;;;;0.82;0.60;;;21.80;52.90;;;;;;6270248;28;20123;-66
2021/11/02 03:09:18;;;;;;;1.60;0.70;;;21.80;52.90;;;;;;6268997;28;20064;-64
2021/11/02 03:12:24;;;;;;;0.60;0.60;;;21.80;52.90;;;;;;6268772;28;20049;-65
2021/11/02 03:49:08;;;;;;;0.60;0.60;;;21.80;52.90;;;;;;6220455;28;20029;-65
2021/11/02 03:55:16;;;;;;;0.50;0.45;;;21.80;53.00;;;;;;6258041;28;20553;-64
2021/11/02 03:58:27;;;;;;;0.50;0.50;;;21.80;52.90;;;;;;6243462;28;20030;-65
2021/11/02 04:01:43;;;;;;;0.60;0.60;;;21.80;52.90;;;;;;6246893;28;20571;-64
2021/11/02 04:25:36;;;;;;;0.63;0.43;;;21.80;53.00;;;;;;6221290;28;20442;-65
2021/11/02 04:48:11;;;;;;;0.85;0.60;;;21.80;53.00;;;;;;6229495;28;20084;-65
2021/11/02 05:52:19;;;;;;;0.52;0.50;;;21.80;53.00;;;;;;6250968;28;20033;-65
2021/11/02 05:54:54;;;;;;;1.90;0.60;;;21.80;53.00;;;;;;6249945;28;20076;-66
2021/11/02 05:58:09;;;;;;;0.80;0.55;;;21.80;53.10;;;;;;6262818;28;20104;-65
2021/11/02 06:01:26;;;;;;;0.50;0.50;;;21.80;53.10;;;;;;6266539;28;20072;-66
2021/11/02 06:04:50;;;;;;;0.63;0.60;;;21.80;53.10;;;;;;6269595;28;20475;-66
2021/11/02 06:28:17;;;;;;;10.05;0.95;;;21.80;55.50;;;;;;6249180;28;20488;-65
2021/11/02 06:31:38;;;;;;;3.78;1.02;;;21.80;55.80;;;;;;6228926;28;20494;-66
2021/11/02 06:35:06;;;;;;;1.83;0.80;;;21.80;55.80;;;;;;6220367;28;20025;-66
2021/11/02 06:38:30;;;;;;;3.25;0.80;;;21.80;56.20;;;;;;6252756;28;20021;-66
2021/11/02 06:42:02;;;;;;;1.25;0.65;;;21.80;56.40;;;;;;6259265;28;20442;-66
2021/11/02 06:48:38;;;;;;;2.65;0.75;;;21.80;55.90;;;;;;6227963;28;20420;-66
2021/11/02 06:52:06;;;;;;;1.20;0.77;;;21.80;56.10;;;;;;6244151;28;20025;-66
2021/11/02 06:58:50;;;;;;;4.15;0.90;;;21.80;56.60;;;;;;6242142;28;20530;-66
2021/11/02 07:16:11;;;;;;;2.03;0.82;;;21.80;55.70;;;;;;6231531;28;20426;-65
2021/11/02 07:19:18;;;;;;;1.90;0.70;;;21.80;55.60;;;;;;6248950;28;20414;-66
2021/11/02 07:25:45;;;;;;;1.75;0.85;;;21.80;55.40;;;;;;6250654;28;20133;-66
2021/11/02 08:47:09;;;;;;;1.02;0.55;;;21.80;54.40;;;;;;6251138;28;20022;-66
2021/11/02 08:50:11;;;;;;;0.80;0.80;;;21.80;54.30;;;;;;6244082;28;20025;-66
2021/11/02 08:53:13;;;;;;;1.23;0.88;;;21.80;54.40;;;;;;6263231;28;20541;-67
2021/11/02 08:56:15;;;;;;;1.90;0.60;;;21.80;54.30;;;;;;6247983;28;20029;-66
2021/11/02 08:59:15;;;;;;;0.60;0.60;;;21.80;54.30;;;;;;6244342;28;20083;-67
2021/11/02 09:02:33;;;;;;;0.90;0.70;;;21.80;54.40;;;;;;6252892;28;20060;-67
2021/11/02 09:05:36;;;;;;;1.38;0.82;;;21.80;54.30;;;;;;6244872;28;20025;-66
2021/11/02 09:08:43;;;;;;;0.82;0.60;;;21.80;54.30;;;;;;6249455;28;20033;-67
2021/11/02 09:11:45;;;;;;;0.57;0.57;;;21.80;54.30;;;;;;6256249;28;20041;-64
2021/11/02 09:14:47;;;;;;;1.40;0.77;;;21.80;54.30;;;;;;6247252;28;20022;-64
2021/11/02 09:17:52;;;;;;;1.13;0.70;;;21.80;54.30;;;;;;6245110;28;20022;-64
2021/11/02 09:20:52;;;;;;;1.65;0.60;;;21.80;54.30;;;;;;6244210;28;20430;-65
2021/11/02 09:23:54;;;;;;;0.70;0.70;;;21.80;54.30;;;;;;6254889;28;20083;-65
2021/11/02 09:26:56;;;;;;;0.95;0.60;;;21.80;54.30;;;;;;6255230;28;20021;-65
2021/11/02 09:29:58;;;;;;;1.17;0.80;;;21.80;54.20;;;;;;6269177;28;20021;-64
2021/11/02 09:32:58;;;;;;;1.35;0.68;;;21.80;54.30;;;;;;6267552;28;20025;-65
2021/11/02 09:36:02;;;;;;;0.88;0.60;;;21.80;54.30;;;;;;6267373;28;20100;-64
2021/11/02 09:39:08;;;;;;;3.50;0.75;;;21.80;54.30;;;;;;6244061;28;20033;-65
2021/11/02 09:42:55;;;;;;;1.27;0.80;;;21.80;54.20;;;;;;6245739;28;20063;-64
2021/11/02 09:46:37;;;;;;;0.95;0.70;;;21.80;54.30;;;;;;6271578;28;20017;-68
2021/11/02 09:49:54;;;;;;;1.88;1.45;;;21.80;54.20;;;;;;6226258;28;20046;-69
2021/11/02 09:53:20;;;;;;;8.35;3.70;;;21.80;54.00;;;;;;6258589;28;20028;-66
2021/11/02 09:56:37;;;;;;;7.07;3.67;;;21.80;53.70;;;;;;6269437;28;20032;-68
2021/11/02 10:00:13;;;;;;;8.55;4.70;;;21.80;52.90;;;;;;6246783;28;20029;-66
2021/11/02 10:03:41;;;;;;;7.38;4.20;;;21.80;52.20;;;;;;6240005;28;20021;-66
2021/11/02 10:07:06;;;;;;;7.22;4.30;;;21.80;52.20;;;;;;6233162;28;20039;-67
2021/11/02 10:10:14;;;;;;;8.47;4.13;;;21.80;52.80;;;;;;6225527;28;20113;-66
2021/11/02 10:13:38;;;;;;;4.47;3.45;;;21.80;52.80;;;;;;6262780;28;20046;-67
2021/11/02 10:16:58;;;;;;;5.55;3.20;;;21.80;52.90;;;;;;6248539;28;20045;-67
2021/11/02 10:20:29;;;;;;;5.00;3.70;;;21.80;53.00;;;;;;6221492;28;20079;-64
2021/11/02 10:23:49;;;;;;;6.57;3.17;;;21.80;53.10;;;;;;6226685;28;20080;-66
2021/11/02 10:27:15;;;;;;;5.57;3.13;;;21.80;53.10;;;;;;6244779;28;20040;-66
2021/11/02 10:30:24;;;;;;;4.15;3.05;;;21.80;53.20;;;;;;6252968;28;20022;-64
2021/11/02 10:33:42;;;;;;;5.40;3.15;;;21.80;53.20;;;;;;6246711;28;20017;-66
2021/11/02 10:37:00;;;;;;;4.07;2.72;;;21.80;53.30;;;;;;6246841;28;20040;-66
2021/11/02 10:40:15;;;;;;;8.00;3.25;;;21.80;53.40;;;;;;6230747;28;20025;-66
2021/11/02 10:43:38;;;;;;;5.82;3.15;;;21.80;53.40;;;;;;6247234;28;20491;-65
2021/11/02 10:46:52;;;;;;;7.40;2.88;;;21.80;53.50;;;;;;6256117;28;20024;-66
2021/11/02 10:50:11;;;;;;;3.80;2.60;;;21.80;53.70;;;;;;6272107;28;20055;-66
2021/11/02 10:53:21;;;;;;;7.85;3.00;;;21.80;53.60;;;;;;6262229;28;20463;-68
2021/11/02 10:56:44;;;;;;;7.30;3.90;;;21.80;53.80;;;;;;6252526;28;20021;-66
2021/11/02 10:59:46;;;;;;;7.07;3.63;;;21.80;53.40;;;;;;6271289;28;20414;-66
2021/11/02 11:02:50;;;;;;;6.05;3.67;;;21.80;52.80;;;;;;6271267;28;20426;-66
2021/11/02 11:05:58;;;;;;;7.63;2.83;;;21.80;52.90;;;;;;6271594;28;20425;-66
2021/11/02 11:09:01;;;;;;;7.78;2.95;;;21.80;53.20;;;;;;6266319;28;20116;-67
2021/11/02 11:12:07;;;;;;;4.15;2.80;;;21.80;53.30;;;;;;6250391;28;20049;-66
2021/11/02 11:15:08;;;;;;;3.88;2.88;;;21.80;53.40;;;;;;6271632;28;20104;-67
2021/11/02 11:18:10;;;;;;;4.57;2.90;;;21.80;53.40;;;;;;6258695;28;20083;-66
2021/11/02 11:21:12;;;;;;;3.58;2.78;;;21.80;53.40;;;;;;6247052;28;20103;-66
2021/11/02 11:24:39;;;;;;;4.38;2.90;;;21.80;53.40;;;;;;6266712;28;20033;-67
2021/11/02 11:27:47;;;;;;;3.60;2.60;;;21.80;53.50;;;;;;6251433;28;20025;-66
2021/11/02 11:30:48;;;;;;;3.47;2.25;;;21.80;53.50;;;;;;6236745;28;20017;-66
2021/11/02 11:33:59;;;;;;;2.33;2.10;;;21.80;53.50;;;;;;6271056;28;20588;-66
2021/11/02 11:37:02;;;;;;;3.63;2.45;;;21.80;53.50;;;;;;6258914;28;20025;-64
2021/11/02 11:40:06;;;;;;;3.33;2.40;;;21.80;53.50;;;;;;6237130;28;20064;-65
2021/11/02 11:43:08;;;;;;;6.13;2.58;;;21.80;53.50;;;;;;6260404;28;20512;-63
2021/11/02 11:46:11;;;;;;;4.47;2.33;;;21.80;53.50;;;;;;6267638;28;20343;-64
2021/11/02 11:49:22;;;;;;;4.07;2.30;;;21.80;53.50;;;;;;6246472;28;20065;-64
2021/11/02 11:52:25;;;;;;;4.45;2.78;;;21.80;53.50;;;;;;6246185;28;20072;-69
2021/11/02 11:55:28;;;;;;;3.22;2.38;;;21.80;53.50;;;;;;6247124;28;20026;-65
2021/11/02 11:58:30;;;;;;;3.33;2.28;;;21.80;53.50;;;;;;6247445;28;20018;-66
2021/11/02 12:01:54;;;;;;;2.63;2.03;;;21.80;53.50;;;;;;6246372;28;20033;-65
2021/11/02 12:05:00;;;;;;;3.55;2.08;;;21.80;53.60;;;;;;6245318;28;20372;-66
2021/11/02 12:08:22;;;;;;;3.20;2.28;;;21.80;53.50;;;;;;6245537;28;20036;-66
2021/11/02 12:11:29;;;;;;;3.50;2.20;;;21.80;53.50;;;;;;6243871;28;20530;-66
2021/11/02 12:14:41;;;;;;;3.13;2.20;;;21.80;53.60;;;;;;6269759;28;20017;-66
2021/11/02 12:17:44;;;;;;;2.22;1.92;;;21.80;53.50;;;;;;6261336;28;20368;-66
2021/11/02 12:20:49;;;;;;;2.78;2.20;;;21.80;53.60;;;;;;6245797;28;20021;-64
2021/11/02 12:24:04;;;;;;;5.70;2.05;;;21.80;53.60;;;;;;6240285;28;20047;-66
2021/11/02 12:27:12;;;;;;;;;;;21.80;53.60;;;;;;6242038;28;20032;-66
2021/11/02 12:30:16;;;;;;;2.90;1.88;;;21.80;53.60;;;;;;6231116;28;20367;-66
2021/11/02 12:33:25;;;;;;;2.63;2.15;;;21.80;53.60;;;;;;6233586;28;20439;-66
2021/11/02 12:36:27;;;;;;;3.35;2.28;;;21.80;53.70;;;;;;6232146;28;20258;-67
2021/11/02 12:39:29;;;;;;;3.50;2.13;;;21.80;53.80;;;;;;6243988;28;20040;-66
2021/11/02 12:42:38;;;;;;;3.85;2.00;;;21.80;54.30;;;;;;6255984;28;20029;-66
2021/11/02 12:45:41;;;;;;;2.22;1.95;;;21.80;54.80;;;;;;6217485;28;20026;-65
2021/11/02 12:48:43;;;;;;;2.60;1.95;;;21.80;54.80;;;;;;6245479;28;20437;-66
2021/11/02 12:51:51;;;;;;;2.88;2.10;;;21.80;55.10;;;;;;6252721;28;20021;-66
2021/11/02 12:55:03;;;;;;;2.53;1.80;;;21.80;55.00;;;;;;6237319;28;20029;-66
2021/11/02 12:58:16;;;;;;;3.53;2.05;;;21.80;54.80;;;;;;6266893;28;20040;-66
2021/11/02 13:01:35;;;;;;;3.10;1.70;;;21.80;54.60;;;;;;6267121;28;20021;-66
2021/11/02 13:04:40;;;;;;;5.75;1.80;;;21.80;54.60;;;;;;6248356;28;20025;-67
2021/11/02 13:07:43;;;;;;;7.05;1.80;;;21.90;54.90;;;;;;6254866;28;20395;-65
2021/11/02 13:10:46;;;;;;;3.00;1.80;;;21.80;54.60;;;;;;6240197;28;20151;-65
2021/11/02 13:14:02;;;;;;;10.73;1.80;;;21.90;54.50;;;;;;6237323;28;20036;-65
2021/11/02 13:17:07;;;;;;;18.83;1.83;;;21.90;54.40;;;;;;6256608;28;20037;-66
2021/11/02 13:20:08;;;;;;;29.55;2.60;;;21.90;54.20;;;;;;6233831;28;20085;-67
2021/11/02 13:23:09;;;;;;;16.20;2.28;;;21.90;54.90;;;;;;6239806;28;20108;-65
2021/11/02 13:26:14;;;;;;;29.08;3.08;;;21.90;54.30;;;;;;6258329;28;20481;-66
2021/11/02 13:29:16;;;;;;;16.25;3.30;;;21.90;54.70;;;;;;6247124;28;20551;-67
2021/11/02 13:32:19;;;;;;;11.32;2.47;;;21.90;54.40;;;;;;6261738;28;20485;-66
2021/11/02 13:35:37;;;;;;;15.45;2.15;;;21.90;54.40;;;;;;6235543;28;20443;-66
2021/11/02 13:38:42;;;;;;;7.28;2.65;;;21.90;54.30;;;;;;6233482;28;20030;-67
2021/11/02 13:41:49;;;;;;;12.00;2.17;;;21.90;54.30;;;;;;6253912;28;20037;-65
2021/11/02 13:44:52;;;;;;;7.35;2.47;;;21.90;54.30;;;;;;6231972;28;20519;-68
2021/11/02 13:47:53;;;;;;;11.57;2.35;;;21.90;54.20;;;;;;6232861;28;20026;-67
2021/11/02 13:50:54;;;;;;;7.22;2.05;;;21.90;54.20;;;;;;6223247;28;20037;-67
2021/11/02 13:53:56;;;;;;;8.50;2.17;;;21.90;54.40;;;;;;6238825;28;20025;-70
2021/11/02 13:56:56;;;;;;;36.03;3.45;;;21.90;54.40;;;;;;6231395;28;20351;-69
2021/11/02 13:59:57;;;;;;;16.67;2.70;;;21.90;55.40;;;;;;6253837;28;20041;-70
2021/11/02 14:03:05;;;;;;;10.65;2.58;;;21.90;54.20;;;;;;6258998;28;21130;-69
2021/11/02 14:06:10;;;;;;;12.20;2.55;;;21.90;53.80;;;;;;6247230;28;20026;-70
2021/11/02 14:09:11;;;;;;;;;;;21.90;52.70;;;;;;6263895;28;20412;-69
2021/11/02 14:12:31;;;;;;;8.75;2.40;;;21.80;52.20;;;;;;6271788;28;19921;-70
2021/11/02 14:15:32;;;;;;;6.63;2.20;;;21.80;51.90;;;;;;6230552;28;20022;-70
2021/11/02 14:18:34;;;;;;;9.43;2.50;;;21.80;52.00;;;;;;6265748;28;20032;-70
2021/11/02 14:21:50;;;;;;;9.85;2.42;;;21.80;51.80;;;;;;6247033;28;20113;-71
2021/11/02 14:24:51;;;;;;;8.40;2.53;;;21.80;51.70;;;;;;6246778;28;20033;-72
2021/11/02 14:27:53;;;;;;;8.90;2.65;;;21.80;51.50;;;;;;6246165;28;20079;-71
2021/11/02 14:30:53;;;;;;;7.10;2.22;;;21.80;51.50;;;;;;6248453;28;20033;-71
2021/11/02 14:33:54;;;;;;;7.90;2.65;;;21.80;51.40;;;;;;6265678;28;20436;-71
2021/11/02 14:37:15;;;;;;;8.18;2.50;;;21.70;51.10;;;;;;6268156;28;20021;-70
2021/11/02 14:40:27;;;;;;;7.43;2.60;;;21.70;50.90;;;;;;6248596;28;20033;-71
2021/11/02 14:43:36;;;;;;;8.13;2.53;;;21.70;51.10;;;;;;6251729;28;20031;-71
2021/11/02 14:46:37;;;;;;;7.55;2.92;;;21.70;50.90;;;;;;6242885;28;20361;-71
2021/11/02 14:49:38;;;;;;;6.28;2.40;;;21.70;51.10;;;;;;6236530;28;20061;-72
2021/11/02 14:52:39;;;;;;;5.85;2.63;;;21.70;51.00;;;;;;6253731;28;20056;-70
2021/11/02 14:55:53;;;;;;;9.15;2.70;;;21.70;50.80;;;;;;6267945;28;20052;-71
2021/11/02 14:58:58;;;;;;;6.72;2.60;;;21.70;50.20;;;;;;6258586;28;20032;-70
2021/11/02 15:02:02;;;;;;;8.35;2.25;;;21.70;50.40;;;;;;6252221;28;20021;-69
2021/11/02 15:05:06;;;;;;;11.82;3.13;;;21.70;50.30;;;;;;6229209;28;20495;-68
2021/11/02 15:08:13;;;;;;;12.70;2.90;;;21.70;49.50;;;;;;6248690;28;20026;-70
2021/11/02 15:11:17;;;;;;;9.30;3.13;;;21.70;49.40;;;;;;6244424;28;20140;-63
2021/11/02 15:14:23;;;;;;;6.20;2.20;;;21.70;49.50;;;;;;6253133;28;20068;-65
2021/11/02 15:17:24;;;;;;;10.73;2.72;;;21.70;49.60;;;;;;6241189;28;20063;-65
2021/11/02 15:20:27;;;;;;;8.98;2.97;;;21.70;50.00;;;;;;6226829;28;20524;-65
2021/11/02 15:23:37;;;;;;;8.07;2.47;;;21.70;50.20;;;;;;6232993;28;20356;-65
2021/11/02 15:26:42;;;;;;;5.55;2.58;;;21.70;50.40;;;;;;6253081;28;20084;-65
2021/11/02 15:29:49;;;;;;;6.22;2.47;;;21.70;50.50;;;;;;6248498;28;20083;-65
2021/11/02 15:32:51;;;;;;;7.22;2.25;;;21.70;50.70;;;;;;6266870;28;20458;-65
2021/11/02 15:35:51;;;;;;;6.05;2.60;;;21.70;50.90;;;;;;6229607;28;20030;-65
2021/11/02 15:39:02;;;;;;;5.45;2.38;;;21.70;50.90;;;;;;6249907;28;20528;-64
2021/11/02 15:42:04;;;;;;;6.72;2.20;;;21.70;51.00;;;;;;6262631;28;20036;-65
2021/11/02 15:45:13;;;;;;;3.90;1.92;;;21.70;51.20;;;;;;6252163;28;20022;-66
2021/11/02 15:48:18;;;;;;;3.60;1.73;;;21.70;51.30;;;;;;6244249;28;20434;-65
2021/11/02 15:51:20;;;;;;;3.25;1.75;;;21.70;51.40;;;;;;6244245;28;20395;-65
2021/11/02 15:54:21;;;;;;;3.15;1.80;;;21.70;51.50;;;;;;6248241;28;20068;-65
2021/11/02 15:57:22;;;;;;;3.45;1.90;;;21.70;51.60;;;;;;6238666;28;20034;-65
2021/11/02 16:00:25;;;;;;;2.58;1.60;;;21.80;51.80;;;;;;6257830;28;20026;-66
2021/11/02 16:03:36;;;;;;;6.78;2.33;;;21.80;51.80;;;;;;6246744;28;20086;-66
2021/11/02 16:07:00;;;;;;;4.43;2.85;;;21.70;51.60;;;;;;6247477;28;20036;-66
2021/11/02 16:10:01;;;;;;;7.10;2.22;;;21.70;51.70;;;;;;6232772;28;20530;-65
2021/11/02 16:13:06;;;;;;;5.78;2.15;;;21.70;51.70;;;;;;6239504;28;20128;-65
2021/11/02 16:16:08;;;;;;;4.22;2.33;;;21.80;51.90;;;;;;6235748;28;20408;-66
2021/11/02 16:19:08;;;;;;;7.30;2.40;;;21.70;52.00;;;;;;6235743;28;20044;-69
2021/11/02 16:22:09;;;;;;;5.50;3.05;;;21.80;52.00;;;;;;6236869;28;20372;-67
2021/11/02 16:25:10;;;;;;;4.82;2.40;;;21.80;52.00;;;;;;6244743;28;20026;-66
2021/11/02 16:28:18;;;;;;;5.85;3.30;;;21.70;52.00;;;;;;6235100;28;20049;-69
2021/11/02 16:31:27;;;;;;;8.20;2.45;;;21.80;52.20;;;;;;6246457;28;20032;-66
2021/11/02 16:34:28;;;;;;;9.32;3.00;;;21.70;52.10;;;;;;6244308;28;20033;-66
2021/11/02 16:37:36;;;;;;;6.80;2.47;;;21.80;52.20;;;;;;6251662;28;20037;-66
2021/11/02 16:40:44;;;;;;;5.53;2.53;;;21.70;52.10;;;;;;6243541;28;20036;-64
2021/11/02 16:44:00;;;;;;;6.60;2.53;;;21.80;52.30;;;;;;6227032;28;20061;-68
2021/11/02 16:47:12;;;;;;;11.23;3.08;;;21.80;52.30;;;;;;6237269;28;20025;-67
2021/11/02 16:50:13;;;;;;;5.22;3.08;;;21.80;52.20;;;;;;6247500;28;20052;-67
2021/11/02 16:53:21;;;;;;;7.05;2.88;;;21.70;51.90;;;;;;6245742;28;20032;-67
2021/11/02 16:56:24;;;;;;;6.65;2.95;;;21.70;51.70;;;;;;6245920;28;20018;-67
2021/11/02 16:59:59;;;;;;;8.90;3.20;;;21.70;51.80;;;;;;6248841;28;20450;-68
2021/11/02 17:03:05;;;;;;;9.48;2.90;;;21.70;51.10;;;;;;6252574;28;20025;-69
2021/11/02 17:06:10;;;;;;;6.28;3.20;;;21.60;50.70;;;;;;6247932;28;20498;-70
2021/11/02 17:09:14;;;;;;;7.95;2.83;;;21.60;50.80;;;;;;6262942;28;20056;-68
2021/11/02 17:12:15;;;;;;;8.13;3.35;;;21.60;50.50;;;;;;6269979;28;20455;-69
2021/11/02 17:15:23;;;;;;;11.20;3.50;;;21.70;50.00;;;;;;6246397;28;20079;-68
2021/11/02 17:18:26;;;;;;;7.10;2.75;;;21.60;49.80;;;;;;6252816;28;20446;-67
2021/11/02 17:21:30;;;;;;;7.00;2.88;;;21.60;50.00;;;;;;6246834;28;20061;-67
2021/11/02 17:24:31;;;;;;;13.63;3.25;;;21.60;49.80;;;;;;6271401;28;20021;-68
2021/11/02 17:27:33;;;;;;;10.75;3.35;;;21.60;49.60;;;;;;6264555;28;20386;-67
2021/11/02 17:30:34;;;;;;;14.50;4.47;;;21.60;49.70;;;;;;6258438;28;20021;-67
2021/11/02 17:33:37;;;;;;;15.27;4.93;;;21.60;49.40;;;;;;6267474;28;20086;-67
2021/11/02 17:36:38;;;;;;;13.45;4.97;;;21.60;49.40;;;;;;6262983;28;20036;-73
2021/11/02 17:39:39;;;;;;;12.90;5.47;;;21.60;49.50;;;;;;6271142;28;20083;-72
2021/11/02 17:42:43;;;;;;;15.50;5.60;;;21.60;49.10;;;;;;6261139;28;20025;-66
2021/11/02 17:45:44;;;;;;;14.55;5.90;;;21.60;49.00;;;;;;6226104;28;20056;-67
2021/11/02 17:48:45;;;;;;;14.65;5.65;;;21.60;49.40;;;;;;6239571;28;20033;-67
2021/11/02 17:51:46;;;;;;;10.27;4.78;;;21.60;49.20;;;;;;6237181;28;20541;-67
2021/11/02 17:54:46;;;;;;;11.07;4.78;;;21.60;48.80;;;;;;6225430;28;20027;-67
2021/11/02 17:57:49;;;;;;;14.23;5.00;;;21.60;48.80;;;;;;6250563;28;20538;-67
2021/11/02 18:00:54;;;;;;;11.43;4.50;;;21.60;49.00;;;;;;6233165;28;20030;-67
2021/11/02 18:03:55;;;;;;;9.20;4.43;;;21.60;49.00;;;;;;6235083;28;20034;-66
2021/11/02 18:06:55;;;;;;;10.77;4.75;;;21.60;49.30;;;;;;6246788;28;20268;-67
2021/11/02 18:09:57;;;;;;;8.82;3.78;;;21.60;49.20;;;;;;6244794;28;20022;-67
2021/11/02 18:12:59;;;;;;;11.27;4.82;;;21.60;49.20;;;;;;6249568;28;20077;-67
2021/11/02 18:16:07;;;;;;;8.88;3.85;;;21.60;49.20;;;;;;6229617;28;20057;-67
2021/11/02 18:19:10;;;;;;;11.98;4.45;;;21.60;49.20;;;;;;6250762;28;20022;-67
2021/11/02 18:22:11;;;;;;;7.43;3.72;;;21.60;49.30;;;;;;6223606;28;20602;-67
2021/11/02 18:25:17;;;;;;;6.63;3.67;;;21.60;49.50;;;;;;6246105;28;20037;-67
2021/11/02 18:28:18;;;;;;;7.57;3.63;;;21.60;49.60;;;;;;6251115;28;20052;-67
2021/11/02 18:31:20;;;;;;;7.13;3.50;;;21.60;49.70;;;;;;6249590;28;20029;-67
2021/11/02 18:34:21;;;;;;;5.35;3.30;;;21.60;49.80;;;;;;6267373;28;20533;-67
2021/11/02 18:37:22;;;;;;;7.50;3.70;;;21.60;49.90;;;;;;6248669;28;20033;-67
2021/11/02 18:40:23;;;;;;;6.55;3.10;;;21.60;50.10;;;;;;6243016;28;20125;-67
2021/11/02 18:43:29;;;;;;;6.75;3.38;;;21.60;50.30;;;;;;6265491;28;20513;-67
2021/11/02 18:46:30;;;;;;;10.75;3.60;;;21.60;50.40;;;;;;6233460;28;20025;-67
2021/11/02 18:49:31;;;;;;;9.60;3.58;;;21.60;51.00;;;;;;6257873;28;20475;-67
2021/11/02 18:52:32;;;;;;;6.47;3.13;;;21.60;50.30;;;;;;6256140;28;20048;-67
2021/11/02 18:55:32;;;;;;;5.53;3.10;;;21.60;50.40;;;;;;6238949;28;20568;-73
2021/11/02 18:58:33;;;;;;;6.22;2.67;;;21.60;50.40;;;;;;6241333;28;20056;-67
2021/11/02 19:01:34;;;;;;;9.68;3.42;;;21.60;50.70;;;;;;6246292;28;20036;-67
2021/11/02 19:04:35;;;;;;;9.48;3.10;;;21.60;50.80;;;;;;6242516;28;20041;-67
2021/11/02 19:07:36;;;;;;;9.48;3.17;;;21.60;50.80;;;;;;6241218;28;20087;-67
2021/11/02 19:10:37;;;;;;;6.13;3.35;;;21.60;50.60;;;;;;6242777;28;20049;-67
2021/11/02 19:13:38;;;;;;;5.82;2.95;;;21.60;50.50;;;;;;6242985;28;20088;-67
2021/11/02 19:16:40;;;;;;;6.07;3.28;;;21.60;50.60;;;;;;6242637;28;20033;-67
2021/11/02 19:19:41;;;;;;;7.55;2.88;;;21.60;50.60;;;;;;6247731;28;20490;-67
2021/11/02 19:22:42;;;;;;;4.85;2.78;;;21.60;50.70;;;;;;6247433;28;20465;-68
2021/11/02 19:25:42;;;;;;;6.53;3.30;;;21.60;50.70;;;;;;6243142;28;20029;-67
2021/11/02 19:28:44;;;;;;;4.85;2.50;;;21.60;50.70;;;;;;6243216;28;20029;-67
2021/11/02 19:31:45;;;;;;;5.05;2.50;;;21.60;50.70;;;;;;6244332;28;20512;-67
2021/11/02 19:34:45;;;;;;;4.63;2.70;;;21.60;50.70;;;;;;6248239;28;20041;-67
2021/11/02 19:37:46;;;;;;;4.28;2.30;;;21.60;50.80;;;;;;6249971;28;20028;-67
2021/11/02 19:40:48;;;;;;;3.60;2.70;;;21.60;50.80;;;;;;6243314;28;20026;-67
2021/11/02 19:43:48;;;;;;;7.65;3.50;;;21.60;50.90;;;;;;6255020;28;20506;-67
2021/11/02 19:46:49;;;;;;;4.75;2.78;;;21.60;50.90;;;;;;6248844;28;20082;-67
2021/11/02 19:49:53;;;;;;;3.75;2.33;;;21.60;50.90;;;;;;6246816;28;20026;-67
2021/11/02 19:52:55;;;;;;;3.17;2.40;;;21.60;50.90;;;;;;6253288;28;20375;-67
2021/11/02 19:55:56;;;;;;;4.50;2.60;;;21.60;51.00;;;;;;6259421;28;20033;-67
2021/11/02 19:58:57;;;;;;;6.00;2.75;;;21.60;51.10;;;;;;6267824;28;20110;-67
2021/11/02 20:01:59;;;;;;;4.85;2.70;;;21.60;51.00;;;;;;6258776;28;20025;-67
2021/11/02 20:05:03;;;;;;;4.68;2.40;;;21.60;51.10;;;;;;6243398;28;20108;-67
2021/11/02 20:08:07;;;;;;;3.17;2.35;;;21.60;51.10;;;;;;6242722;28;20109;-67
2021/11/02 20:11:16;;;;;;;4.97;2.80;;;21.60;51.10;;;;;;6242858;28;20128;-67
2021/11/02 20:14:24;;;;;;;4.00;2.35;;;21.60;51.10;;;;;;6266471;28;20036;-67
2021/11/02 20:17:28;;;;;;;4.10;2.50;;;21.60;51.20;;;;;;6258922;28;20029;-67
2021/11/02 20:20:28;;;;;;;3.95;2.50;;;21.70;51.30;;;;;;6242668;28;20072;-67
2021/11/02 20:23:29;;;;;;;5.07;2.40;;;21.60;51.20;;;;;;6257707;28;20027;-67
2021/11/02 20:26:31;;;;;;;4.90;2.65;;;21.60;51.20;;;;;;6265328;28;20116;-67
2021/11/02 20:29:33;;;;;;;3.67;2.42;;;21.60;51.20;;;;;;6256141;28;20032;-67
2021/11/02 20:32:34;;;;;;;3.58;2.33;;;21.60;51.20;;;;;;6253345;28;20032;-67